createdAt,value
2022-10-29T06:16:06.360Z,22.45
2022-10-29T06:18:55.180Z,21.87
2022-10-29T06:21:49.183Z,21.90
2022-10-29T06:24:38.422Z,21.97
2022-10-29T06:27:44.180Z,22.58
2022-10-29T06:30:35.428Z,24.65
2022-10-29T06:33:25.207Z,23.67
2022-10-29T06:36:14.001Z,23.87
2022-10-29T06:39:03.127Z,23.10
2022-10-29T06:41:52.394Z,22.67
2022-10-29T06:44:44.207Z,24.15
2022-10-29T06:47:35.262Z,22.47
2022-10-29T06:50:21.945Z,21.93
2022-10-29T06:53:22.198Z,21.17
2022-10-29T06:56:10.625Z,20.15
2022-10-29T06:59:17.144Z,20.25
2022-10-29T07:02:05.530Z,21.27
2022-10-29T07:04:54.364Z,21.23
2022-10-29T07:07:41.686Z,23.92
2022-10-29T07:10:30.592Z,23.87
2022-10-29T07:13:26.654Z,23.85
2022-10-29T07:16:18.545Z,24.98
2022-10-29T07:19:07.174Z,24.90
2022-10-29T07:22:02.352Z,28.83
2022-10-29T07:24:53.045Z,26.73
2022-10-29T07:27:45.964Z,26.10
2022-10-29T07:30:34.427Z,27.10
2022-10-29T07:33:22.186Z,30.37
2022-10-29T07:36:20.527Z,31.87
2022-10-29T07:39:14.180Z,29.08
2022-10-29T07:42:06.896Z,27.53
2022-10-29T07:44:56.627Z,27.63
2022-10-29T07:47:43.317Z,29.15
2022-10-29T07:50:33.200Z,28.67
2022-10-29T07:53:23.652Z,27.55
2022-10-29T07:56:12.435Z,25.73
2022-10-29T07:59:01.281Z,27.13
2022-10-29T08:01:52.300Z,29.45
2022-10-29T08:04:44.160Z,33.53
2022-10-29T08:07:32.400Z,33.28
2022-10-29T08:10:25.130Z,31.90
2022-10-29T08:13:20.734Z,30.55
2022-10-29T08:16:09.205Z,32.88
2022-10-29T08:18:57.765Z,33.33
2022-10-29T08:21:47.154Z,35.28
2022-10-29T08:24:36.148Z,34.30
2022-10-29T08:27:25.350Z,33.53
2022-10-29T08:30:17.299Z,34.38
2022-10-29T08:33:07.208Z,40.95
2022-10-29T08:35:59.944Z,41.25
2022-10-29T08:38:48.008Z,44.30
2022-10-29T08:41:50.546Z,45.30
2022-10-29T08:44:56.164Z,43.03
2022-10-29T08:47:57.325Z,35.75
2022-10-29T08:50:48.473Z,34.75
2022-10-29T08:53:45.538Z,34.45
2022-10-29T08:56:44.196Z,33.97
2022-10-29T08:59:36.371Z,32.95
2022-10-29T09:02:25.204Z,31.95
2022-10-29T09:05:17.916Z,32.53
2022-10-29T09:08:11.308Z,32.10
2022-10-29T09:11:06.152Z,33.17
2022-10-29T09:14:20.198Z,38.42
2022-10-29T09:17:18.922Z,35.05
2022-10-29T09:23:44.753Z,34.35
2022-10-29T09:26:38.598Z,34.28
2022-10-29T09:29:45.206Z,30.27
2022-10-29T09:32:57.886Z,29.07
2022-10-29T09:35:48.293Z,28.40
2022-10-29T09:39:04.113Z,29.43
2022-10-29T09:41:55.735Z,29.65
2022-10-29T09:44:56.317Z,25.95
2022-10-29T09:48:31.446Z,27.60
2022-10-29T09:51:39.427Z,28.20
2022-10-29T09:54:29.664Z,28.60
2022-10-29T09:57:32.130Z,31.00
2022-10-29T10:00:32.431Z,30.12
2022-10-29T10:03:31.034Z,28.40
2022-10-29T10:06:20.209Z,30.90
2022-10-29T10:09:11.803Z,30.50
2022-10-29T10:12:00.179Z,33.92
2022-10-29T10:14:49.848Z,31.83
2022-10-29T10:18:00.774Z,30.70
2022-10-29T10:21:12.995Z,29.53
2022-10-29T10:24:02.568Z,30.25
2022-10-29T10:26:49.228Z,31.25
2022-10-29T10:29:41.489Z,30.55
2022-10-29T10:32:43.443Z,27.35
2022-10-29T10:35:37.219Z,27.80
2022-10-29T10:38:45.714Z,27.70
2022-10-29T10:41:41.251Z,29.77
2022-10-29T10:44:34.217Z,28.42
2022-10-29T10:47:27.059Z,29.17
2022-10-29T10:50:37.789Z,29.52
2022-10-29T10:53:25.142Z,30.45
2022-10-29T10:56:27.268Z,30.17
2022-10-29T10:59:30.194Z,28.83
2022-10-29T11:03:00.681Z,32.95
2022-10-29T11:06:00.181Z,32.38
2022-10-29T11:09:00.561Z,34.70
2022-10-29T11:12:01.191Z,33.80
2022-10-29T11:14:57.209Z,34.97
2022-10-29T11:18:32.215Z,35.63
2022-10-29T11:21:47.252Z,35.60
2022-10-29T11:24:48.222Z,34.35
2022-10-29T11:28:27.263Z,34.83
2022-10-29T11:31:32.679Z,35.03
2022-10-29T11:34:47.567Z,34.40
2022-10-29T11:38:22.268Z,33.63
2022-10-29T11:41:39.168Z,31.45
2022-10-29T11:44:28.617Z,30.17
2022-10-29T11:47:55.551Z,30.58
2022-10-29T11:51:00.674Z,31.17
2022-10-29T11:54:15.374Z,33.10
2022-10-29T11:57:17.194Z,33.55
2022-10-29T12:03:39.220Z,35.73
2022-10-29T12:06:45.971Z,34.55
2022-10-29T12:09:54.130Z,35.00
2022-10-29T12:12:57.166Z,31.75
2022-10-29T12:16:16.320Z,31.85
2022-10-29T12:19:47.946Z,31.95
2022-10-29T12:23:05.019Z,29.17
2022-10-29T12:26:10.647Z,30.80
2022-10-29T12:29:29.168Z,31.30
2022-10-29T12:33:08.361Z,28.30
2022-10-29T12:36:04.467Z,28.20
2022-10-29T12:38:54.552Z,25.08
2022-10-29T12:41:46.617Z,25.37
2022-10-29T12:44:49.173Z,27.13
2022-10-29T12:51:10.163Z,30.67
2022-10-29T12:54:29.774Z,29.90
2022-10-29T12:57:21.468Z,32.03
2022-10-29T13:04:01.176Z,31.05
2022-10-29T13:07:04.634Z,32.25
2022-10-29T13:10:25.313Z,31.05
2022-10-29T13:13:35.338Z,28.62
2022-10-29T13:16:25.954Z,28.70
2022-10-29T13:19:32.379Z,29.52
2022-10-29T13:23:01.213Z,28.65
2022-10-29T13:25:54.275Z,30.63
2022-10-29T13:28:41.213Z,28.48
2022-10-29T13:31:36.185Z,28.80
2022-10-29T13:34:55.733Z,26.20
2022-10-29T13:37:53.701Z,29.05
2022-10-29T13:40:56.316Z,29.42
2022-10-29T13:44:15.635Z,30.35
2022-10-29T13:47:22.147Z,34.92
2022-10-29T13:50:18.167Z,30.10
2022-10-29T13:53:13.457Z,28.07
2022-10-29T13:56:14.877Z,26.60
2022-10-29T13:59:20.180Z,26.45
2022-10-29T14:02:22.623Z,22.98
2022-10-29T14:05:21.832Z,22.98
2022-10-29T14:08:19.041Z,26.93
2022-10-29T14:11:17.149Z,25.25
2022-10-29T14:14:21.864Z,25.80
2022-10-29T14:17:19.664Z,26.12
2022-10-29T14:20:36.016Z,25.25
2022-10-29T14:23:24.184Z,26.73
2022-10-29T14:26:23.842Z,25.60
2022-10-29T14:29:26.401Z,25.35
2022-10-29T14:32:22.721Z,25.98
2022-10-29T14:35:18.945Z,27.52
2022-10-29T14:38:12.312Z,26.65
2022-10-29T14:41:04.131Z,43.08
2022-10-29T14:44:02.119Z,27.37
2022-10-29T14:47:00.391Z,29.33
2022-10-29T14:49:56.830Z,30.27
2022-10-29T14:52:53.704Z,37.65
2022-10-29T14:55:47.430Z,30.67
2022-10-29T14:58:38.375Z,27.65
2022-10-29T15:01:30.305Z,37.50
2022-10-29T15:04:23.477Z,33.22
2022-10-29T15:07:22.759Z,56.15
2022-10-29T15:10:26.556Z,32.65
2022-10-29T15:13:31.978Z,32.30
2022-10-29T15:16:31.860Z,31.17
2022-10-29T15:19:22.882Z,27.98
2022-10-29T15:22:14.504Z,29.27
2022-10-29T15:25:04.149Z,27.60
2022-10-29T15:27:57.341Z,28.48
2022-10-29T15:30:50.400Z,28.67
2022-10-29T15:33:47.354Z,31.17
2022-10-29T15:40:01.345Z,31.58
2022-10-29T15:42:49.565Z,29.90
2022-10-29T15:45:57.267Z,32.20
2022-10-29T15:48:51.188Z,33.50
2022-10-29T15:51:41.756Z,34.58
2022-10-29T15:54:33.226Z,33.22
2022-10-29T15:57:25.163Z,37.53
2022-10-29T16:00:25.336Z,35.80
2022-10-29T16:03:21.476Z,36.30
2022-10-29T16:06:11.168Z,36.77
2022-10-29T16:09:00.224Z,38.78
2022-10-29T16:11:50.857Z,38.47
2022-10-29T16:17:34.653Z,47.60
2022-10-29T16:20:33.156Z,53.50
2022-10-29T16:23:20.640Z,48.50
2022-10-29T16:29:30.285Z,37.33
2022-10-29T16:32:25.019Z,42.15
2022-10-29T16:35:34.180Z,43.08
2022-10-29T16:38:25.308Z,37.67
2022-10-29T16:41:19.708Z,36.85
2022-10-29T16:44:13.965Z,36.92
2022-10-29T16:47:14.290Z,38.33
2022-10-29T16:50:12.611Z,37.97
2022-10-29T16:53:11.315Z,37.75
2022-10-29T16:55:58.675Z,37.20
2022-10-29T16:58:45.898Z,37.75
2022-10-29T17:01:49.183Z,39.67
2022-10-29T17:04:38.213Z,35.83
2022-10-29T17:07:37.078Z,32.22
2022-10-29T17:13:25.799Z,42.65
2022-10-29T17:16:17.185Z,43.50
2022-10-29T17:19:08.232Z,45.97
2022-10-29T17:22:04.213Z,45.42
2022-10-29T17:24:55.167Z,47.53
2022-10-29T17:27:42.985Z,45.75
2022-10-29T17:30:34.066Z,45.17
2022-10-29T17:33:23.184Z,44.63
2022-10-29T17:36:21.167Z,43.03
2022-10-29T17:39:23.173Z,43.15
2022-10-29T17:48:25.515Z,41.60
2022-10-29T17:51:14.815Z,40.97
2022-10-29T17:54:05.303Z,42.30
2022-10-29T17:57:01.538Z,41.55
2022-10-29T18:03:09.207Z,44.35
2022-10-29T18:06:05.185Z,43.55
2022-10-29T18:09:01.864Z,45.42
2022-10-29T18:11:58.352Z,43.38
2022-10-29T18:14:48.186Z,43.92
2022-10-29T18:17:49.201Z,43.15
2022-10-29T18:20:45.426Z,42.65
2022-10-29T18:23:32.870Z,41.67
2022-10-29T18:26:32.303Z,42.28
2022-10-29T18:29:21.157Z,41.83
2022-10-29T18:32:14.377Z,40.75
2022-10-29T18:35:07.185Z,40.17
2022-10-29T18:38:01.239Z,42.25
2022-10-29T18:40:58.474Z,40.12
2022-10-29T18:44:01.182Z,41.88
2022-10-29T18:46:49.187Z,40.57
2022-10-29T18:49:38.791Z,40.92
2022-10-29T18:52:36.188Z,41.40
2022-10-29T18:55:30.226Z,41.20
2022-10-29T18:58:24.221Z,41.25
2022-10-29T19:01:15.513Z,38.22
2022-10-29T19:04:09.178Z,38.88
2022-10-29T19:07:14.148Z,39.90
2022-10-29T19:10:08.820Z,41.08
2022-10-29T19:13:02.241Z,38.28
2022-10-29T19:16:07.407Z,40.13
2022-10-29T19:19:00.395Z,41.78
2022-10-29T19:21:56.352Z,41.67
2022-10-29T19:25:04.248Z,42.35
2022-10-29T19:28:06.219Z,40.72
2022-10-29T19:30:57.300Z,45.45
2022-10-29T19:33:53.171Z,44.55
2022-10-29T19:36:45.205Z,46.40
2022-10-29T19:39:32.683Z,46.63
2022-10-29T19:42:20.353Z,48.47
2022-10-29T19:45:10.163Z,47.92
2022-10-29T19:48:04.470Z,46.35
2022-10-29T19:53:51.556Z,48.28
2022-10-29T19:56:43.333Z,47.40
2022-10-29T19:59:29.773Z,46.33
2022-10-29T20:02:18.989Z,44.67
2022-10-29T20:05:11.836Z,45.12
2022-10-29T20:08:10.006Z,46.58
2022-10-29T20:11:05.409Z,44.92
2022-10-29T20:13:53.050Z,44.58
2022-10-29T20:16:41.437Z,45.50
2022-10-29T20:19:29.250Z,44.92
2022-10-29T20:22:17.359Z,45.80
2022-10-29T20:25:05.450Z,49.15
2022-10-29T20:28:04.594Z,49.00
2022-10-29T20:31:23.528Z,49.88
2022-10-29T20:34:12.773Z,47.78
2022-10-29T20:39:52.580Z,46.92
2022-10-29T20:42:41.688Z,48.08
2022-10-29T20:45:30.617Z,49.67
2022-10-29T20:48:17.467Z,53.43
2022-10-29T20:51:07.410Z,54.25
2022-10-29T20:53:55.465Z,54.35
2022-10-29T20:56:44.456Z,53.83
2022-10-29T20:59:43.284Z,52.47
2022-10-29T21:02:31.193Z,52.80
2022-10-29T21:05:27.197Z,54.88
2022-10-29T21:08:14.408Z,51.72
2022-10-29T21:11:02.450Z,54.40
2022-10-29T21:13:53.125Z,55.37
2022-10-29T21:16:41.215Z,54.28
2022-10-29T21:19:40.436Z,56.20
2022-10-29T21:22:27.632Z,57.85
2022-10-29T21:25:24.362Z,58.65
2022-10-29T21:28:18.385Z,55.33
2022-10-29T21:31:05.489Z,55.90
2022-10-29T21:33:52.950Z,53.75
2022-10-29T21:36:40.349Z,55.30
2022-10-29T21:39:30.605Z,58.28
2022-10-29T21:42:17.075Z,53.45
2022-10-29T21:45:06.179Z,54.05
2022-10-29T21:47:57.662Z,56.08
2022-10-29T21:50:44.989Z,56.75
2022-10-29T21:53:31.725Z,60.53
2022-10-29T21:56:21.445Z,58.80
2022-10-29T21:59:08.059Z,60.45
2022-10-29T22:01:56.950Z,64.45
2022-10-29T22:04:43.917Z,64.35
2022-10-29T22:07:30.937Z,62.08
2022-10-29T22:10:17.600Z,59.85
2022-10-29T22:13:07.981Z,59.45
2022-10-29T22:16:00.137Z,56.88
2022-10-29T22:18:46.903Z,60.77
2022-10-29T22:21:34.183Z,59.22
2022-10-29T22:24:20.672Z,57.15
2022-10-29T22:27:07.567Z,59.13
2022-10-29T22:29:54.574Z,54.53
2022-10-29T22:32:41.867Z,53.17
2022-10-29T22:35:28.585Z,54.35
2022-10-29T22:38:16.107Z,56.90
2022-10-29T22:41:10.366Z,56.85
2022-10-29T22:43:59.417Z,55.17
2022-10-29T22:46:45.270Z,53.72
2022-10-29T22:49:31.668Z,52.70
2022-10-29T22:52:18.070Z,52.88
2022-10-29T22:55:05.797Z,51.78
2022-10-29T22:57:52.043Z,50.03
2022-10-29T23:00:41.462Z,49.97
2022-10-29T23:03:28.679Z,50.78
2022-10-29T23:06:28.213Z,50.95
2022-10-29T23:09:15.378Z,52.33
2022-10-29T23:12:01.733Z,50.20
2022-10-29T23:14:48.600Z,48.85
2022-10-29T23:17:36.878Z,46.05
2022-10-29T23:20:23.509Z,48.08
2022-10-29T23:23:10.097Z,52.97
2022-10-29T23:26:01.150Z,51.83
2022-10-29T23:28:47.972Z,53.03
2022-10-29T23:31:33.995Z,53.00
2022-10-29T23:34:20.347Z,52.90
2022-10-29T23:37:09.809Z,53.17
2022-10-29T23:39:57.447Z,52.83
2022-10-29T23:42:43.641Z,52.35
2022-10-29T23:45:31.174Z,54.03
2022-10-29T23:48:20.749Z,56.33
2022-10-29T23:51:17.557Z,57.45
2022-10-29T23:54:05.714Z,56.37
2022-10-29T23:56:52.241Z,54.92
2022-10-29T23:59:38.627Z,55.47
